Time;durP1;ratioP1;P1;durP2;ratioP2;P2;SDS_P1;SDS_P2;PMS_P1;PMS_P2;Temp;Humidity;BMP_temperature;BMP_pressure;BME280_temperature;BME280_humidity;BME280_pressure;Samples;Min_cycle;Max_cycle;Signal;HPM_P1;HPM_P2
2023/05/18 00:00:54;;;;;;;;;;;;;;;22.31;50.44;102608.88;5119672;27;11441;-59
2023/05/18 00:03:21;;;;;;;;;;;;;;;22.29;50.32;102608.31;5120669;27;10203;-59
2023/05/18 00:05:48;;;;;;;;;;;;;;;22.27;50.40;102602.09;5120677;27;8403;-59
2023/05/18 00:08:15;;;;;;;;;;;;;;;22.27;50.63;102602.09;5121558;27;10502;-58
2023/05/18 00:10:42;;;;;;;;;;;;;;;22.27;50.75;102602.09;5120894;27;8208;-62
2023/05/18 00:13:09;;;;;;;;;;;;;;;22.26;50.64;102605.22;5121601;27;7996;-59
2023/05/18 00:15:36;;;;;;;;;;;;;;;22.27;50.72;102604.06;5118937;27;10285;-59
2023/05/18 00:18:03;;;;;;;;;;;;;;;22.24;50.67;102605.50;5120405;27;10547;-59
2023/05/18 00:20:30;;;;;;;;;;;;;;;22.22;50.90;102610.53;5119335;27;10239;-59
2023/05/18 00:22:57;;;;;;;;;;;;;;;22.22;50.96;102598.44;5118985;27;9338;-59
2023/05/18 00:25:23;;;;;;;;;;;;;;;22.21;50.73;102597.63;5120475;27;14307;-59
2023/05/18 00:27:50;;;;;;;;;;;;;;;22.19;50.41;102599.84;5120302;27;11639;-59
2023/05/18 00:30:17;;;;;;;;;;;;;;;22.20;50.62;102595.91;5119648;27;8590;-59
2023/05/18 00:32:44;;;;;;;;;;;;;;;22.17;50.54;102604.91;5119893;27;8182;-58
2023/05/18 00:35:11;;;;;;;;;;;;;;;22.16;50.79;102595.63;5120684;27;8908;-58
2023/05/18 00:37:38;;;;;;;;;;;;;;;22.15;50.61;102593.94;5119707;27;8660;-58
2023/05/18 00:40:05;;;;;;;;;;;;;;;22.13;50.36;102587.72;5121503;27;9931;-59
2023/05/18 00:42:32;;;;;;;;;;;;;;;22.13;50.74;102589.69;5119543;27;9093;-59
2023/05/18 00:45:00;;;;;;;;;;;;;;;22.14;50.58;102599.84;5121012;27;8324;-59
2023/05/18 00:47:26;;;;;;;;;;;;;;;22.14;50.58;102597.03;5118905;27;11043;-59
2023/05/18 00:49:53;;;;;;;;;;;;;;;22.13;50.44;102595.31;5121093;27;5382;-59
2023/05/18 00:52:20;;;;;;;;;;;;;;;22.10;50.43;102599.56;5119919;27;9534;-59
2023/05/18 00:54:48;;;;;;;;;;;;;;;22.10;50.53;102593.09;5120923;27;5048;-59
2023/05/18 00:57:15;;;;;;;;;;;;;;;22.08;50.44;102593.34;5119405;27;11065;-59
2023/05/18 00:59:42;;;;;;;;;;;;;;;22.07;50.22;102591.69;5120337;27;8174;-59
2023/05/18 01:02:10;;;;;;;;;;;;;;;22.08;50.19;102592.50;5118689;27;8179;-59
2023/05/18 01:04:40;;;;;;;;;;;;;;;22.05;50.42;102596.75;5121073;27;5812;-58
2023/05/18 01:07:07;;;;;;;;;;;;;;;22.04;50.37;102597.84;5119940;27;11303;-59
2023/05/18 01:09:34;;;;;;;;;;;;;;;22.03;50.28;102598.16;5120195;27;8102;-58
2023/05/18 01:12:05;;;;;;;;;;;;;;;22.03;50.41;102606.59;5101749;27;8296;-58
2023/05/18 01:14:36;;;;;;;;;;;;;;;22.01;50.64;102603.19;5102496;27;10539;-58
2023/05/18 01:17:06;;;;;;;;;;;;;;;21.99;50.44;102600.66;5100283;27;10300;-58
2023/05/18 01:19:34;;;;;;;;;;;;;;;21.98;50.63;102598.97;5120190;27;8278;-58
2023/05/18 01:22:02;;;;;;;;;;;;;;;21.97;50.68;102611.38;5098124;27;7917;-58
2023/05/18 01:24:36;;;;;;;;;;;;;;;21.97;50.50;102604.88;5119852;27;10339;-59
2023/05/18 01:27:03;;;;;;;;;;;;;;;21.95;50.94;102605.16;5117406;27;10501;-59
2023/05/18 01:29:30;;;;;;;;;;;;;;;21.96;50.73;102606.84;5120448;27;10293;-59
2023/05/18 01:31:57;;;;;;;;;;;;;;;21.94;50.86;102605.44;5119298;27;7969;-59
2023/05/18 01:34:24;;;;;;;;;;;;;;;21.94;51.22;102609.09;5120805;27;11095;-59
2023/05/18 01:36:51;;;;;;;;;;;;;;;21.94;51.19;102608.25;5100117;27;10976;-59
2023/05/18 01:39:18;;;;;;;;;;;;;;;21.92;50.96;102608.50;5119040;27;6205;-59
2023/05/18 01:41:50;;;;;;;;;;;;;;;21.92;51.53;102604.84;5120354;27;10018;-58
2023/05/18 01:44:21;;;;;;;;;;;;;;;21.89;51.34;102603.44;5118933;27;10207;-58
2023/05/18 01:46:48;;;;;;;;;;;;;;;21.89;51.18;102609.06;5116395;27;7816;-60
2023/05/18 01:49:18;;;;;;;;;;;;;;;21.87;51.46;102605.66;5101308;27;9545;-58
2023/05/18 01:51:46;;;;;;;;;;;;;;;21.88;51.44;102603.69;5119622;27;8050;-58
2023/05/18 01:54:15;;;;;;;;;;;;;;;21.88;51.67;102609.34;5119611;27;10611;-58
2023/05/18 01:56:43;;;;;;;;;;;;;;;21.86;51.51;102605.94;5119290;27;10327;-58
2023/05/18 01:59:11;;;;;;;;;;;;;;;21.85;51.68;102604.25;5119498;27;7793;-58
2023/05/18 02:01:37;;;;;;;;;;;;;;;21.85;51.68;102607.91;5117164;27;11213;-58
2023/05/18 02:04:08;;;;;;;;;;;;;;;21.84;51.78;102613.81;5119680;27;9794;-58
2023/05/18 02:06:36;;;;;;;;;;;;;;;21.83;51.62;102612.13;5118514;27;9194;-58
2023/05/18 02:09:03;;;;;;;;;;;;;;;21.83;51.77;102609.31;5101648;27;7510;-58
2023/05/18 02:11:30;;;;;;;;;;;;;;;21.83;51.77;102603.69;5119167;27;7530;-59
2023/05/18 02:13:57;;;;;;;;;;;;;;;21.81;51.52;102611.53;5101268;27;8356;-58
2023/05/18 02:16:24;;;;;;;;;;;;;;;21.79;51.74;102611.84;5116580;27;10184;-60
2023/05/18 02:18:51;;;;;;;;;;;;;;;21.80;51.44;102612.69;5117898;27;7996;-60
2023/05/18 02:21:19;;;;;;;;;;;;;;;21.79;51.52;102611.00;5117947;27;8158;-60
2023/05/18 02:23:46;;;;;;;;;;;;;;;21.78;51.43;102615.78;5119012;27;8395;-60
2023/05/18 02:26:12;;;;;;;;;;;;;;;21.77;51.49;102616.03;5117890;27;10260;-60
2023/05/18 02:28:39;;;;;;;;;;;;;;;21.76;51.45;102612.38;5119697;27;7981;-59
2023/05/18 02:31:07;;;;;;;;;;;;;;;21.74;51.70;102609.84;5097496;27;10205;-60
2023/05/18 02:33:38;;;;;;;;;;;;;;;21.75;51.66;102610.72;5119226;27;9251;-60
2023/05/18 02:36:07;;;;;;;;;;;;;;;21.73;51.80;102607.31;5099387;27;8047;-60
2023/05/18 02:38:35;;;;;;;;;;;;;;;21.71;51.99;102607.56;5119502;27;9188;-60
2023/05/18 02:41:02;;;;;;;;;;;;;;;21.71;51.72;102618.00;5118899;27;9935;-58
2023/05/18 02:43:29;;;;;;;;;;;;;;;21.71;51.76;102609.56;5088124;27;14181;-60
2023/05/18 02:45:56;;;;;;;;;;;;;;;21.70;51.56;102619.13;5096978;28;10178;-60
2023/05/18 02:48:23;;;;;;;;;;;;;;;21.71;51.53;102620.81;5097767;28;9468;-60
2023/05/18 02:50:50;;;;;;;;;;;;;;;21.69;51.80;102620.25;5097235;28;9774;-60
2023/05/18 02:53:17;;;;;;;;;;;;;;;21.67;51.67;102612.06;5098657;28;7979;-60
2023/05/18 02:55:45;;;;;;;;;;;;;;;21.66;51.72;102610.41;5097234;28;10287;-61
2023/05/18 02:58:12;;;;;;;;;;;;;;;21.67;51.39;102597.16;5101992;28;5555;-60
2023/05/18 03:00:40;;;;;;;;;;;;;;;21.66;51.38;102595.47;5097882;27;10234;-60
2023/05/18 03:03:09;;;;;;;;;;;;;;;21.66;51.45;102596.34;5096124;28;6038;-60
2023/05/18 03:05:36;;;;;;;;;;;;;;;21.67;51.43;102594.34;5096942;28;8451;-60
2023/05/18 03:08:03;;;;;;;;;;;;;;;21.64;51.53;102587.31;5098196;28;11131;-60
2023/05/18 03:10:30;;;;;;;;;;;;;;;21.65;51.28;102590.97;5097629;28;9216;-60
2023/05/18 03:12:57;;;;;;;;;;;;;;;21.63;51.40;102591.25;5099246;28;8005;-60
2023/05/18 03:15:24;;;;;;;;;;;;;;;21.63;51.67;102596.00;5098367;28;8175;-61
2023/05/18 03:17:50;;;;;;;;;;;;;;;21.60;51.51;102589.00;5097632;28;11370;-60
2023/05/18 03:20:18;;;;;;;;;;;;;;;21.60;51.71;102588.13;5097682;28;11352;-60
2023/05/18 03:22:45;;;;;;;;;;;;;;;21.60;51.54;102579.69;5097495;27;8280;-60
2023/05/18 03:25:13;;;;;;;;;;;;;;;21.56;51.63;102579.41;5097970;27;10719;-60
2023/05/18 03:27:40;;;;;;;;;;;;;;;21.58;51.52;102582.78;5097661;28;9347;-60
2023/05/18 03:30:07;;;;;;;;;;;;;;;21.60;51.44;102574.06;5095556;28;7984;-60
2023/05/18 03:32:35;;;;;;;;;;;;;;;21.56;51.45;102576.59;5096222;28;10187;-60
2023/05/18 03:35:03;;;;;;;;;;;;;;;21.56;51.39;102576.59;5097376;27;10240;-60
2023/05/18 03:37:30;;;;;;;;;;;;;;;21.55;51.53;102579.69;5095924;28;8175;-59
2023/05/18 03:39:59;;;;;;;;;;;;;;;21.55;51.53;102577.72;5095963;28;9188;-59
2023/05/18 03:42:25;;;;;;;;;;;;;;;21.54;51.72;102575.16;5095344;28;7518;-59
2023/05/18 03:44:52;;;;;;;;;;;;;;;21.53;51.65;102576.31;5117661;27;9191;-59
2023/05/18 03:47:20;;;;;;;;;;;;;;;21.52;51.53;102572.66;5117061;27;6821;-58
2023/05/18 03:49:47;;;;;;;;;;;;;;;21.50;51.64;102572.06;5118318;27;10175;-59
2023/05/18 03:52:20;;;;;;;;;;;;;;;21.50;51.40;102574.88;5117009;27;8076;-59
2023/05/18 03:54:49;;;;;;;;;;;;;;;21.50;51.57;102571.22;5119303;27;8154;-59
2023/05/18 03:57:16;;;;;;;;;;;;;;;21.48;51.53;102576.28;5102289;27;8175;-60
2023/05/18 03:59:43;;;;;;;;;;;;;;;21.48;51.43;102577.13;5121392;27;11206;-59
2023/05/18 04:02:10;;;;;;;;;;;;;;;21.48;51.36;102579.94;5100325;27;9390;-59
2023/05/18 04:04:40;;;;;;;;;;;;;;;21.48;51.39;102593.16;5103169;27;5567;-59
2023/05/18 04:07:07;;;;;;;;;;;;;;;21.45;51.54;102585.25;5120376;27;7534;-58
2023/05/18 04:09:35;;;;;;;;;;;;;;;21.44;51.33;102587.22;5103484;27;9558;-58
2023/05/18 04:12:02;;;;;;;;;;;;;;;21.45;51.42;102582.44;5101238;27;8052;-58
2023/05/18 04:14:31;;;;;;;;;;;;;;;21.42;51.21;102581.03;5121586;27;9466;-59
2023/05/18 04:17:04;;;;;;;;;;;;;;;21.42;51.57;102578.22;5118249;27;8161;-59
2023/05/18 04:19:32;;;;;;;;;;;;;;;21.43;51.18;102579.94;5103502;27;7541;-59
2023/05/18 04:21:59;;;;;;;;;;;;;;;21.42;51.41;102578.22;5119470;27;7562;-59
2023/05/18 04:24:26;;;;;;;;;;;;;;;21.43;51.22;102579.94;5102329;27;8183;-59
2023/05/18 04:26:52;;;;;;;;;;;;;;;21.40;51.29;102573.97;5120053;27;8157;-59
2023/05/18 04:29:20;;;;;;;;;;;;;;;21.40;51.27;102586.06;5120870;27;9468;-59
2023/05/18 04:31:47;;;;;;;;;;;;;;;21.37;51.39;102581.00;5118582;27;7980;-59
2023/05/18 04:34:16;;;;;;;;;;;;;;;21.39;51.33;102586.38;5122008;27;9483;-59
2023/05/18 04:36:43;;;;;;;;;;;;;;;21.37;51.23;102582.97;5120221;27;9610;-59
2023/05/18 04:39:11;;;;;;;;;;;;;;;21.33;51.37;102585.50;5120769;27;8842;-58
2023/05/18 04:41:40;;;;;;;;;;;;;;;21.32;51.57;102583.81;5120658;27;10283;-58
2023/05/18 04:44:08;;;;;;;;;;;;;;;21.32;51.60;102595.03;5120194;27;9549;-58
2023/05/18 04:46:38;;;;;;;;;;;;;;;21.33;51.26;102596.75;5119220;27;8445;-58
2023/05/18 04:49:05;;;;;;;;;;;;;;;21.35;51.10;102593.66;5121738;27;7531;-59
2023/05/18 04:51:33;;;;;;;;;;;;;;;21.31;51.31;102593.34;5119900;27;11854;-59
2023/05/18 04:54:02;;;;;;;;;;;;;;;21.31;51.26;102590.53;5120837;27;8016;-58
2023/05/18 04:56:28;;;;;;;;;;;;;;;21.30;51.09;102600.13;5102602;27;5352;-59
2023/05/18 04:58:58;;;;;;;;;;;;;;;21.29;51.27;102595.59;5121168;27;11085;-59
2023/05/18 05:01:25;;;;;;;;;;;;;;;21.28;51.49;102599.53;5118759;27;8087;-59
2023/05/18 05:03:51;;;;;;;;;;;;;;;21.26;51.29;102602.59;5119736;27;7988;-59
2023/05/18 05:06:19;;;;;;;;;;;;;;;21.25;51.26;102605.72;5107022;27;8211;-59
2023/05/18 05:08:46;;;;;;;;;;;;;;;21.25;51.68;102602.91;5120762;27;9987;-58
2023/05/18 05:11:13;;;;;;;;;;;;;;;21.24;51.58;102604.00;5120189;27;10209;-58
2023/05/18 05:13:40;;;;;;;;;;;;;;;21.23;51.67;102610.75;5101787;27;7789;-58
2023/05/18 05:16:06;;;;;;;;;;;;;;;21.22;51.68;102609.03;5118689;27;10255;-58
2023/05/18 05:18:33;;;;;;;;;;;;;;;21.22;51.64;102609.03;5119003;27;7347;-59
2023/05/18 05:21:00;;;;;;;;;;;;;;;21.21;51.67;102607.38;5118884;27;7951;-58
2023/05/18 05:23:28;;;;;;;;;;;;;;;21.21;51.57;102604.56;5119655;27;8036;-58
2023/05/18 05:25:54;;;;;;;;;;;;;;;21.20;51.44;102605.69;5100698;27;10274;-59
2023/05/18 05:28:21;;;;;;;;;;;;;;;21.19;51.37;102613.25;5119652;27;10177;-59
2023/05/18 05:30:48;;;;;;;;;;;;;;;21.20;51.38;102611.28;5099718;27;5433;-59
2023/05/18 05:33:16;;;;;;;;;;;;;;;21.18;51.49;102605.09;5119173;27;5535;-59
2023/05/18 05:35:43;;;;;;;;;;;;;;;21.18;51.64;102608.75;5091779;27;9534;-59
2023/05/18 05:38:10;;;;;;;;;;;;;;;21.17;51.74;102612.66;5120010;27;7798;-59
2023/05/18 05:40:37;;;;;;;;;;;;;;;21.16;51.94;102607.34;5118853;27;7951;-59
2023/05/18 05:43:05;;;;;;;;;;;;;;;21.17;51.58;102609.00;5119917;27;9728;-59
2023/05/18 05:45:31;;;;;;;;;;;;;;;21.19;51.79;102618.03;5100296;27;8805;-59
2023/05/18 05:47:59;;;;;;;;;;;;;;;21.17;51.83;102611.81;5120022;27;9470;-59
2023/05/18 05:50:26;;;;;;;;;;;;;;;21.16;51.41;102612.97;5117940;27;7976;-59
2023/05/18 05:52:53;;;;;;;;;;;;;;;21.15;51.17;102623.34;5100461;27;8199;-60
2023/05/18 05:55:20;;;;;;;;;;;;;;;21.18;51.39;102621.94;5100208;27;10209;-59
2023/05/18 05:57:47;;;;;;;;;;;;;;;21.13;51.57;102617.16;5118772;27;8160;-59
2023/05/18 06:00:14;;;;;;;;;;;;;;;21.12;51.50;102623.84;5118274;27;9192;-59
2023/05/18 06:02:40;;;;;;;;;;;;;;;21.12;51.46;102625.84;5117968;27;7988;-60
2023/05/18 06:05:07;;;;;;;;;;;;;;;21.14;51.40;102626.44;5100160;27;9197;-60
2023/05/18 06:07:34;;;;;;;;;;;;;;;20.89;45.08;102631.88;5119057;27;8155;-59
2023/05/18 06:10:01;;;;;;;;;;;;;;;20.68;43.64;102628.03;5119359;27;13947;-60
2023/05/18 06:12:28;;;;;;;;;;;;;;;20.60;43.81;102614.50;5117689;27;11964;-59
2023/05/18 06:14:56;;;;;;;;;;;;;;;20.67;45.11;102623.56;5118417;27;11237;-59
2023/05/18 06:17:24;;;;;;;;;;;;;;;20.72;45.95;102623.56;5092105;27;15974;-60
2023/05/18 06:19:51;;;;;;;;;;;;;;;20.73;46.70;102634.53;5100719;27;8485;-59
2023/05/18 06:22:17;;;;;;;;;;;;;;;20.75;47.04;102629.53;5118700;27;14221;-59
2023/05/18 06:24:44;;;;;;;;;;;;;;;20.80;46.66;102632.34;5117370;27;11869;-59
2023/05/18 06:27:11;;;;;;;;;;;;;;;20.82;46.79;102630.13;5119445;27;9866;-59
2023/05/18 06:29:38;;;;;;;;;;;;;;;20.85;46.76;102629.56;5119460;27;8094;-59
2023/05/18 06:32:05;;;;;;;;;;;;;;;20.90;46.51;102636.34;5116783;27;7629;-59
2023/05/18 06:34:33;;;;;;;;;;;;;;;20.93;46.51;102625.44;5119840;27;11931;-59
2023/05/18 06:36:59;;;;;;;;;;;;;;;20.94;46.63;102631.91;5097723;27;8186;-59
2023/05/18 06:39:26;;;;;;;;;;;;;;;20.97;46.77;102634.16;5118802;27;10181;-59
2023/05/18 06:41:53;;;;;;;;;;;;;;;20.97;46.48;102631.34;5117746;27;11042;-59
2023/05/18 06:44:20;;;;;;;;;;;;;;;20.99;46.47;102623.47;5118097;27;8288;-59
2023/05/18 06:46:47;;;;;;;;;;;;;;;20.99;46.45;102631.91;5115882;27;8079;-59
2023/05/18 06:49:14;;;;;;;;;;;;;;;21.02;46.72;102634.19;5117318;27;9988;-59
2023/05/18 06:51:42;;;;;;;;;;;;;;;21.01;46.74;102624.06;5117393;27;8180;-59
2023/05/18 06:54:09;;;;;;;;;;;;;;;21.02;46.53;102623.81;5100485;27;8197;-59
2023/05/18 06:56:36;;;;;;;;;;;;;;;21.02;46.56;102628.59;5119062;27;7988;-59
2023/05/18 06:59:03;;;;;;;;;;;;;;;21.03;46.78;102624.66;5117967;27;10531;-59
2023/05/18 07:01:30;;;;;;;;;;;;;;;21.02;46.82;102632.25;5116992;27;9664;-59
2023/05/18 07:03:57;;;;;;;;;;;;;;;21.02;46.59;102626.63;5118721;27;8077;-59
2023/05/18 07:06:24;;;;;;;;;;;;;;;21.03;46.59;102627.47;5118501;27;7751;-59
2023/05/18 07:08:51;;;;;;;;;;;;;;;21.03;46.73;102628.28;5119238;27;6936;-59
2023/05/18 07:11:18;;;;;;;;;;;;;;;21.02;46.42;102632.25;5097248;27;11318;-59
2023/05/18 07:13:45;;;;;;;;;;;;;;;21.08;47.19;102638.72;5099217;27;8172;-60
2023/05/18 07:16:12;;;;;;;;;;;;;;;21.07;48.18;102637.91;5117456;27;16363;-60
2023/05/18 07:18:40;;;;;;;;;;;;;;;21.13;47.70;102642.44;5118850;27;7998;-59
2023/05/18 07:21:08;;;;;;;;;;;;;;;21.16;47.78;102641.06;5117799;27;10288;-59
2023/05/18 07:23:35;;;;;;;;;;;;;;;21.14;47.75;102641.34;5118324;27;10400;-60
2023/05/18 07:26:02;;;;;;;;;;;;;;;21.14;47.46;102643.28;5117635;27;9206;-60
2023/05/18 07:28:29;;;;;;;;;;;;;;;21.13;47.09;102645.25;5119397;27;7998;-60
2023/05/18 07:30:56;;;;;;;;;;;;;;;21.13;47.02;102648.06;5118619;27;11971;-59
2023/05/18 07:33:22;;;;;;;;;;;;;;;21.13;46.78;102650.03;5105832;27;8539;-60
2023/05/18 07:35:50;;;;;;;;;;;;;;;21.12;46.95;102659.56;5120879;27;9815;-60
2023/05/18 07:38:17;;;;;;;;;;;;;;;21.12;46.39;102651.13;5123711;27;10042;-60
2023/05/18 07:40:44;;;;;;;;;;;;;;;21.12;46.73;102653.94;5122137;27;9723;-60
2023/05/18 07:43:11;;;;;;;;;;;;;;;21.12;46.25;102662.38;5100116;27;8440;-60
2023/05/18 07:45:38;;;;;;;;;;;;;;;21.10;46.30;102654.22;5101188;28;10726;-60
2023/05/18 07:48:06;;;;;;;;;;;;;;;21.10;46.30;102657.03;5100921;28;7816;-59
2023/05/18 07:50:33;;;;;;;;;;;;;;;21.09;46.44;102658.13;5099920;27;7294;-60
2023/05/18 07:53:00;;;;;;;;;;;;;;;21.11;46.42;102652.25;5101146;28;8178;-60
2023/05/18 07:55:28;;;;;;;;;;;;;;;21.09;46.21;102652.50;5097903;28;7649;-59
2023/05/18 07:57:56;;;;;;;;;;;;;;;21.07;46.25;102654.75;5100595;28;8155;-59
2023/05/18 08:00:24;;;;;;;;;;;;;;;21.04;46.57;102652.47;5099810;28;7513;-60
2023/05/18 08:02:51;;;;;;;;;;;;;;;21.05;46.33;102656.13;5100326;28;9419;-60
2023/05/18 08:05:36;;;;;;;;;;;;;;;21.05;46.54;102662.59;5100882;28;9009;-60
2023/05/18 08:08:10;;;;;;;;;;;;;;;21.01;46.61;102661.44;5102383;27;9250;-60
2023/05/18 08:10:37;;;;;;;;;;;;;;;21.01;46.85;102663.41;5099754;28;9031;-59
2023/05/18 08:13:04;;;;;;;;;;;;;;;21.02;46.79;102662.31;5101033;28;7741;-59
2023/05/18 08:15:37;;;;;;;;;;;;;;;21.01;46.97;102663.41;5100554;28;7397;-60
2023/05/18 08:18:21;;;;;;;;;;;;;;;21.01;46.91;102655.84;5101618;27;9899;-60
2023/05/18 08:20:52;;;;;;;;;;;;;;;21.01;46.96;102652.16;5099720;28;10077;-60
2023/05/18 08:23:19;;;;;;;;;;;;;;;21.01;46.98;102650.22;5101357;28;12441;-60
2023/05/18 08:26:07;;;;;;;;;;;;;;;21.00;46.79;102654.13;5100198;28;5053;-60
2023/05/18 08:28:36;;;;;;;;;;;;;;;21.00;46.82;102648.50;5097463;27;9945;-60
2023/05/18 08:31:03;;;;;;;;;;;;;;;21.01;46.92;102649.34;5098271;28;5562;-60
2023/05/18 08:33:31;;;;;;;;;;;;;;;21.02;46.86;102645.44;5101775;28;7648;-60
2023/05/18 08:35:58;;;;;;;;;;;;;;;21.02;47.08;102637.88;5099647;28;5446;-59
2023/05/18 08:38:25;;;;;;;;;;;;;;;21.03;47.26;102636.72;5100924;28;15746;-60
2023/05/18 08:40:58;;;;;;;;;;;;;;;21.00;46.99;102637.28;5098635;27;8196;-59
2023/05/18 08:43:32;;;;;;;;;;;;;;;21.03;46.92;102635.91;5098672;28;8782;-60
2023/05/18 08:46:02;;;;;;;;;;;;;;;21.06;47.01;102635.34;5098801;28;9686;-60
2023/05/18 08:48:31;;;;;;;;;;;;;;;21.05;47.37;102631.69;5100137;28;12085;-59
2023/05/18 08:51:00;;;;;;;;;;;;;;;21.06;47.12;102633.38;5101013;28;10857;-60
2023/05/18 08:53:28;;;;;;;;;;;;;;;21.07;47.21;102637.03;5093339;27;8163;-59
2023/05/18 08:55:56;;;;;;;;;;;;;;;21.05;47.15;102648.56;5097682;28;10774;-60
2023/05/18 08:58:29;;;;;;;;;;;;;;;21.06;47.24;102638.16;5101204;28;10980;-59
2023/05/18 09:00:57;;;;;;;;;;;;;;;21.06;47.36;102632.53;5098229;27;12342;-59
2023/05/18 09:03:24;;;;;;;;;;;;;;;21.06;47.12;102630.56;5100958;28;10865;-59
2023/05/18 09:05:55;;;;;;;;;;;;;;;21.07;47.17;102632.28;5098401;28;8233;-60
2023/05/18 09:08:36;;;;;;;;;;;;;;;21.06;47.44;102627.75;5100440;28;8189;-60
2023/05/18 09:11:05;;;;;;;;;;;;;;;21.07;47.23;102628.63;5099770;28;8173;-59
2023/05/18 09:13:32;;;;;;;;;;;;;;;21.09;47.15;102629.16;5099880;28;8127;-59
2023/05/18 09:15:59;;;;;;;;;;;;;;;21.08;47.57;102628.31;5099550;28;6569;-59
2023/05/18 09:18:27;;;;;;;;;;;;;;;21.10;47.32;102622.44;5100288;27;7549;-59
2023/05/18 09:20:55;;;;;;;;;;;;;;;21.10;47.30;102620.47;5098783;28;9468;-60
2023/05/18 09:23:22;;;;;;;;;;;;;;;21.08;47.54;102617.09;5099162;28;5496;-60
2023/05/18 09:25:51;;;;;;;;;;;;;;;21.10;47.40;102620.47;5098000;28;8072;-60
2023/05/18 09:28:26;;;;;;;;;;;;;;;21.09;47.51;102615.97;5099691;28;9488;-60
2023/05/18 09:30:53;;;;;;;;;;;;;;;21.11;47.35;102625.00;5094050;28;8371;-60
2023/05/18 09:33:22;;;;;;;;;;;;;;;21.11;47.57;102622.19;5098434;28;10499;-60
2023/05/18 09:35:50;;;;;;;;;;;;;;;21.13;47.42;102622.78;5098810;28;10287;-60
2023/05/18 09:38:20;;;;;;;;;;;;;;;21.09;47.39;102621.59;5086727;28;8454;-60
2023/05/18 09:40:49;;;;;;;;;;;;;;;21.09;47.53;102626.38;5116405;27;5308;-59
2023/05/18 09:43:17;;;;;;;;;;;;;;;21.11;47.55;102621.34;5112346;27;10194;-59
2023/05/18 09:45:47;;;;;;;;;;;;;;;21.12;47.50;102621.03;5116740;27;9407;-60
2023/05/18 09:48:17;;;;;;;;;;;;;;;21.12;47.73;102618.22;5099854;27;5882;-60
2023/05/18 09:50:44;;;;;;;;;;;;;;;21.13;47.49;102602.25;5116272;27;7990;-60
2023/05/18 09:53:12;;;;;;;;;;;;;;;21.15;47.60;102612.13;5098381;27;10290;-60
2023/05/18 09:55:44;;;;;;;;;;;;;;;21.14;47.68;102610.41;5098539;27;11349;-60
2023/05/18 09:58:12;;;;;;;;;;;;;;;21.13;47.69;102607.88;5119302;27;9550;-60
2023/05/18 10:00:41;;;;;;;;;;;;;;;21.16;47.29;102604.53;5114832;27;5655;-59
2023/05/18 10:03:11;;;;;;;;;;;;;;;21.16;47.57;102607.34;5117858;27;12398;-59
2023/05/18 10:05:41;;;;;;;;;;;;;;;21.16;47.68;102610.16;5096073;27;10657;-60
2023/05/18 10:08:18;;;;;;;;;;;;;;;21.17;47.79;102612.66;5101878;27;8289;-60
2023/05/18 10:10:48;;;;;;;;;;;;;;;21.19;47.65;102612.41;5118277;27;7974;-60
2023/05/18 10:13:18;;;;;;;;;;;;;;;21.19;47.63;102603.97;5118950;27;7729;-60
2023/05/18 10:15:50;;;;;;;;;;;;;;;21.19;47.53;102609.59;5097161;27;8045;-60
2023/05/18 10:18:20;;;;;;;;;;;;;;;21.19;47.36;102601.16;5100446;27;10518;-60
2023/05/18 10:20:48;;;;;;;;;;;;;;;21.21;47.48;102602.56;5098330;27;10770;-60
2023/05/18 10:23:17;;;;;;;;;;;;;;;21.22;47.44;102603.41;5097893;27;10547;-60
2023/05/18 10:25:49;;;;;;;;;;;;;;;21.22;47.35;102609.03;5117331;27;8203;-59
2023/05/18 10:28:27;;;;;;;;;;;;;;;21.24;47.45;102604.84;5102022;27;7728;-59
2023/05/18 10:30:57;;;;;;;;;;;;;;;21.25;47.46;102614.13;5112963;27;9216;-60
2023/05/18 10:33:26;;;;;;;;;;;;;;;21.27;47.51;102611.88;5098115;27;11518;-59
2023/05/18 10:35:56;;;;;;;;;;;;;;;21.26;47.62;102604.56;5116174;27;7970;-61
2023/05/18 10:38:25;;;;;;;;;;;;;;;21.26;47.67;102608.22;5117402;27;10671;-63
2023/05/18 10:40:55;;;;;;;;;;;;;;;21.26;47.52;102602.59;5077048;27;10077;-61
2023/05/18 10:43:26;;;;;;;;;;;;;;;21.27;47.39;102598.69;5116090;27;10227;-61
2023/05/18 10:45:55;;;;;;;;;;;;;;;21.28;47.40;102600.38;5115672;27;8020;-61
2023/05/18 10:48:24;;;;;;;;;;;;;;;21.27;47.51;102604.31;5096731;27;6578;-61
2023/05/18 10:50:52;;;;;;;;;;;;;;;21.28;47.76;102605.16;5115024;27;8175;-61
2023/05/18 10:53:21;;;;;;;;;;;;;;;21.28;47.50;102603.19;5117042;27;10164;-61
2023/05/18 10:55:48;;;;;;;;;;;;;;;21.30;47.64;102605.75;5096146;27;10927;-61
2023/05/18 10:58:18;;;;;;;;;;;;;;;21.33;47.50;102602.38;5099388;27;10584;-61
2023/05/18 11:00:48;;;;;;;;;;;;;;;21.32;47.62;102609.09;5115587;27;10511;-61
2023/05/18 11:03:17;;;;;;;;;;;;;;;21.34;47.56;102603.22;5095569;27;10068;-61
2023/05/18 11:05:47;;;;;;;;;;;;;;;21.33;47.61;102596.75;5080304;27;7996;-62
2023/05/18 11:08:25;;;;;;;;;;;;;;;21.42;48.19;102603.53;5117682;27;5571;-62
2023/05/18 11:10:56;;;;;;;;;;;;;;;21.43;48.41;102605.22;5116509;27;12358;-61
2023/05/18 11:13:26;;;;;;;;;;;;;;;21.49;48.26;102603.25;5117778;27;10572;-60
2023/05/18 11:15:54;;;;;;;;;;;;;;;21.54;48.64;102603.28;5116727;27;11160;-60
2023/05/18 11:18:24;;;;;;;;;;;;;;;21.57;48.61;102600.81;5098849;27;7567;-61
2023/05/18 11:20:51;;;;;;;;;;;;;;;21.56;48.75;102598.25;5116571;27;9265;-61
2023/05/18 11:23:22;;;;;;;;;;;;;;;21.58;49.19;102604.44;5117897;27;8087;-60
2023/05/18 11:25:51;;;;;;;;;;;;;;;21.56;49.28;102601.06;5119339;27;9775;-61
2023/05/18 11:28:21;;;;;;;;;;;;;;;21.55;49.88;102605.00;5118279;27;7635;-61
2023/05/18 11:30:49;;;;;;;;;;;;;;;21.55;50.50;102599.38;5116357;27;10972;-61
2023/05/18 11:33:21;;;;;;;;;;;;;;;21.56;50.69;102609.50;5117870;27;16332;-61
2023/05/18 11:35:52;;;;;;;;;;;;;;;21.53;51.00;102602.44;5098759;27;11149;-61
2023/05/18 11:38:19;;;;;;;;;;;;;;;21.55;51.04;102600.22;5118096;27;15939;-61
2023/05/18 11:40:47;;;;;;;;;;;;;;;21.54;51.22;102595.69;5100086;27;7518;-61
2023/05/18 11:43:18;;;;;;;;;;;;;;;21.54;51.22;102592.03;5098764;27;9220;-61
2023/05/18 11:45:51;;;;;;;;;;;;;;;21.54;51.03;102595.69;5115487;27;8365;-61
2023/05/18 11:48:20;;;;;;;;;;;;;;;21.52;51.38;102592.34;5117925;27;10633;-61
2023/05/18 11:50:48;;;;;;;;;;;;;;;21.52;51.27;102589.53;5119478;27;11275;-61
2023/05/18 11:53:16;;;;;;;;;;;;;;;21.52;51.27;102594.31;5114820;27;7982;-61
2023/05/18 11:55:55;;;;;;;;;;;;;;;21.51;51.19;102589.78;5096267;27;6103;-61
2023/05/18 11:58:25;;;;;;;;;;;;;;;21.48;51.50;102594.00;5117832;27;7527;-61
2023/05/18 12:00:54;;;;;;;;;;;;;;;21.48;51.26;102585.56;5116431;27;8003;-62
2023/05/18 12:03:23;;;;;;;;;;;;;;;21.49;51.26;102583.59;5099843;27;8527;-61
2023/05/18 12:05:52;;;;;;;;;;;;;;;21.49;51.26;102583.59;5117403;27;7681;-61
2023/05/18 12:08:20;;;;;;;;;;;;;;;21.47;51.09;102577.41;5099705;27;6182;-61
2023/05/18 12:10:48;;;;;;;;;;;;;;;21.49;51.19;102569.53;5116342;27;7722;-61
2023/05/18 12:13:16;;;;;;;;;;;;;;;21.49;50.87;102566.72;5117096;27;10220;-61
2023/05/18 12:15:43;;;;;;;;;;;;;;;21.47;51.06;102574.59;5116222;27;11032;-61
2023/05/18 12:18:11;;;;;;;;;;;;;;;21.49;50.81;102573.19;5102626;27;11153;-61
2023/05/18 12:20:38;;;;;;;;;;;;;;;21.49;50.67;102561.94;5119402;27;9939;-61
2023/05/18 12:23:06;;;;;;;;;;;;;;;21.49;50.89;102558.28;5102521;27;10199;-61
2023/05/18 12:25:41;;;;;;;;;;;;;;;21.49;50.69;102552.66;5120484;27;8259;-60
2023/05/18 12:28:14;;;;;;;;;;;;;;;21.49;50.69;102547.88;5119737;27;9563;-61
2023/05/18 12:30:42;;;;;;;;;;;;;;;21.48;50.59;102550.97;5117781;27;5410;-61
2023/05/18 12:33:11;;;;;;;;;;;;;;;21.50;50.51;102549.56;5120743;27;8058;-61
2023/05/18 12:35:44;;;;;;;;;;;;;;;21.51;50.54;102542.81;5118383;27;8010;-61
2023/05/18 12:38:16;;;;;;;;;;;;;;;21.53;50.42;102548.19;5121004;27;8520;-61
2023/05/18 12:40:45;;;;;;;;;;;;;;;21.54;50.46;102542.25;5119847;27;11164;-61
2023/05/18 12:43:12;;;;;;;;;;;;;;;21.52;50.52;102546.50;5121180;27;13435;-61
2023/05/18 12:45:42;;;;;;;;;;;;;;;21.51;50.29;102548.44;5119707;27;8401;-61
2023/05/18 12:48:11;;;;;;;;;;;;;;;21.51;50.35;102537.19;5109329;27;8189;-61